This is the latest recevied weather packets stored in our database for station/object CYXE. If no packets are shown the sender has not sent any weather packets the latest 1 day(s).
| Time | Temp. | Humidity | Pressure | Rain* | Wind** | Luminosity | Snow |
|---|---|---|---|---|---|---|---|
| 1778114605 | 10.56° C | 20% | 1011.2 hPa | - | - | - | - |
| 1778113997 | 10.56° C | 20% | 1011.2 hPa | - | - | - | - |
| 1778113400 | 10.56° C | 20% | 1011.2 hPa | - | - | - | - |
| 1778112805 | 10.56° C | 20% | 1011.2 hPa | - | - | - | - |
| 1778110402 | 10.56° C | 20% | 1011.9 hPa | - | - | - | - |
| 1778106802 | 10.56° C | 18% | 1012.2 hPa | - | - | - | - |
| 1778105602 | 10.56° C | 18% | 1012.2 hPa | - | - | - | - |
| 1778105005 | 10° C | 23% | 1013.2 hPa | - | - | - | - |
| 1778104406 | 10° C | 23% | 1013.2 hPa | - | - | - | - |
| 1778102000 | 10° C | 23% | 1013.2 hPa | - | - | - | - |
| 1778101404 | 10° C | 21% | 1013.5 hPa | - | - | - | - |
| 1778100200 | 10° C | 21% | 1013.5 hPa | - | - | - | - |
| 1778098399 | 10° C | 21% | 1013.5 hPa | - | - | - | - |
| 1778096000 | 8.89° C | 23% | 1014.2 hPa | - | - | - | - |
| 1778094202 | 7.78° C | 24% | 1014.9 hPa | - | - | - | - |
| 1778092405 | 7.78° C | 24% | 1014.9 hPa | - | - | - | - |
| 1778091804 | 7.78° C | 24% | 1014.9 hPa | - | - | - | - |
| 1778090000 | 7.78° C | 24% | 1015.2 hPa | - | - | - | - |
| 1778088804 | 7.78° C | 24% | 1015.2 hPa | - | - | - | - |
| 1778086406 | 5.56° C | 33% | 1016.3 hPa | - | - | - | - |
| 1778085802 | 5.56° C | 33% | 1016.3 hPa | - | - | - | - |
| 1778085204 | 5.56° C | 33% | 1016.3 hPa | - | - | - | - |
| 1778081602 | 3.89° C | 48% | 1016.9 hPa | - | - | - | - |
| 1778079201 | 1.67° C | 55% | 1017.3 hPa | - | - | - | - |
| 1778078002 | 1.67° C | 55% | 1017.3 hPa | - | - | - | - |
* Rain since midnight (hover to see other rain measurements)
** Current wind speed in m/s (hover to see current wind gust speed)